• Join FlightAware (Why Join?)
  • Login
  • US Flag 
Rudolph Flight #1: Scheduled 
09:21PM EST


 

Airport Tracker/Info


-or-


 

Live Flight TrackerFlight Track Log ✈ DAL3860 ✈ 24-Apr-2013 ✈ KCLE - KMSP

Flight Track Log - Related Links

Times and Time Zones

All times are in EDT time to prevent confusion due to time zone crossing. See the DAL3860 flight status page for this flight to view local times or setup timezone preferences in your user account.

Time Position Orientation Groundspeed Altitude Reporting Facility
EDT Latitude Longitude Course Direction KTS MPH feet Rate Location/Type
09:15AM 41.4003 -81.8731 252° West 170 196 1,800  Level Cleveland Center
09:15AM 41.3956 -81.9117 261° West 172 198 3,100 2,340 Climbing Cleveland Center
09:17AM 41.3883 -81.9947 263° West 220 253 5,700 2,760 Climbing Cleveland Center
09:18AM 41.3352 -82.3530 260° West  Level FlightAware Approximate
09:18AM 41.3769 -82.0719 259° West 233 268 8,700  Level Cleveland Center
09:19AM 41.3060 -82.4761 252° West  Level FlightAware Approximate
09:19AM 41.3633 -82.1628 259° West 257 296 11,100  Level Cleveland Center
09:20AM 41.2951 -82.6029 252° West  Level FlightAware Approximate
09:20AM 41.3472 -82.2564 257° West 257 296 13,800  Level Cleveland Center
09:21AM 41.3356 -82.3503 261° West 257 296 16,100 2,280 Climbing Cleveland Center
09:22AM 41.3194 -82.4439 257° West 257 296 18,400 1,380 Climbing Cleveland Center
09:23AM 41.3053 -82.5428 259° West 263 303 18,900 300 Climbing Cleveland Center
09:24AM 41.2908 -82.6558 260° West 296 341 19,000 660 Climbing Cleveland Center
09:25AM 41.2739 -82.7714 259° West 317 365 20,300 1,140 Climbing Cleveland Center
09:26AM 41.2592 -82.8869 260° West 317 365 21,300 960 Climbing Cleveland Center
09:27AM 41.2525 -83.0081 266° West 328 377 22,300 900 Climbing Cleveland Center
09:28AM 41.2817 -83.1142 290° West 336 387 23,200 900 Climbing Cleveland Center
09:29AM 41.3244 -83.2431 294° West 341 392 24,200 960 Climbing Cleveland Center
09:30AM 41.3464 -83.3714 283° West 346 398 25,200 720 Climbing Cleveland Center
09:31AM 41.3558 -83.4989 276° West 346 398 25,700 480 Climbing Cleveland Center
09:32AM 41.3650 -83.6294 275° West 358 412 26,200 480 Climbing Cleveland Center
09:33AM 41.3758 -83.7628 276° West 358 412 26,700 480 Climbing Cleveland Center
09:34AM 41.3867 -83.8961 276° West 368 423 27,200 480 Climbing Cleveland Center
09:35AM 41.3953 -84.0294 275° West 373 429 27,700 480 Climbing Cleveland Center
09:36AM 41.4056 -84.1686 276° West 373 429 28,200 480 Climbing Cleveland Center
09:38AM 41.4300 -84.4850 276° West 377 434 29,400 480 Climbing Chicago Center
09:39AM 41.4392 -84.6242 275° West 377 434 29,900 480 Climbing Chicago Center
09:40AM 41.4489 -84.7642 275° West 379 436 30,400 600 Climbing Chicago Center
09:41AM 41.4600 -84.9308 275° West 377 434 31,200 720 Climbing Chicago Center
09:42AM 41.4694 -85.0661 275° West 366 421 32,000 360 Climbing Chicago Center
09:43AM 41.4772 -85.1986 275° West 361 415 32,000  Level Chicago Center
09:44AM 41.4842 -85.3319 274° West 359 413 32,000  Level Chicago Center
09:45AM 41.4936 -85.4672 275° West 358 412 32,000  Level Chicago Center
09:46AM 41.5011 -85.5997 274° West 353 406 32,000  Level Chicago Center
09:47AM 41.5086 -85.7314 274° West 353 406 32,000  Level Chicago Center
09:48AM 41.5158 -85.8625 274° West 353 406 32,000  Level Chicago Center
09:49AM 41.5392 -86.0217 281° West 373 429 32,000  Level Chicago Center
09:50AM 41.6097 -86.1436 308° West 414 476 32,000  Level Chicago Center
09:51AM 41.6939 -86.2592 314° West 433 498 32,000  Level Chicago Center
09:52AM 41.7786 -86.3753 314° West 435 501 32,000  Level Chicago Center
09:53AM 41.8628 -86.4919 314° West 436 502 32,000 -180 Level Chicago Center
09:55AM 41.9472 -86.6094 314° West 437 503 31,700 -780 Descending Chicago Center
09:56AM 42.0550 -86.7589 314° West 455 524 30,400 -840 Descending Chicago Center
09:57AM 42.1428 -86.8844 313° West 463 533 30,000 -240 Descending Chicago Center
09:58AM 42.2294 -87.0047 314° West 456 525 30,000  Level Chicago Center
09:59AM 42.3139 -87.1242 314° West 447 514 30,000  Level Chicago Center
10:00AM 42.4000 -87.2461 314° West 450 518 30,000  Level Chicago Center
10:01AM 42.5006 -87.3886 314° West 444 511 30,000  Level Chicago Center
10:02AM 42.5844 -87.5086 314° West 442 509 30,000  Level Chicago Center
10:03AM 42.6622 -87.6206 313° West 442 509 30,000  Level Chicago Center
10:04AM 42.7603 -87.7631 313° West 442 509 30,000  Level Chicago Center
10:05AM 42.8450 -87.8881 313° West 447 514 30,000  Level Chicago Center
10:06AM 42.9292 -88.0117 313° West 444 511 30,000  Level Chicago Center
10:07AM 43.0133 -88.1353 313° West 443 510 30,000  Level Chicago Center
10:08AM 43.0978 -88.2581 313° West 442 509 30,000  Level Chicago Center
10:09AM 43.1886 -88.4053 310° West 433 498 30,000  Level Chicago Center
10:10AM 43.2631 -88.5350 308° West 429 494 30,000  Level Chicago Center
10:11AM 43.3397 -88.6647 309° West 429 494 30,000  Level Chicago Center
10:12AM 43.4142 -88.7933 309° West 424 488 30,000  Level Chicago Center
10:13AM 43.4889 -88.9239 308° West 429 494 30,000  Level Chicago Center
10:14AM 43.5622 -89.0528 308° West 426 490 30,000  Level Chicago Center
10:16AM 43.7208 -89.3300 308° West 424 488 30,000  Level Chicago Center
10:17AM 43.7597 -89.3961 309° West 432 497 30,000  Level Minneapolis Center
10:18AM 43.8439 -89.5453 308° West 421 484 30,000  Level Minneapolis Center
10:19AM 43.9167 -89.6750 308° West 422 486 30,000  Level Minneapolis Center
10:20AM 43.9889 -89.8039 308° West 423 487 30,000  Level Minneapolis Center
10:21AM 44.0611 -89.9339 308° West 423 487 30,000  Level Minneapolis Center
10:22AM 44.1322 -90.0636 307° West 421 484 30,000  Level Minneapolis Center
10:23AM 44.2028 -90.1931 307° West 421 484 30,000  Level Minneapolis Center
10:24AM 44.2869 -90.3450 308° West 423 487 30,000  Level Minneapolis Center
10:25AM 44.3586 -90.4761 307° West 425 489 30,000  Level Minneapolis Center
10:26AM 44.4314 -90.6056 308° West 422 486 30,000 -60 Level Minneapolis Center
10:27AM 44.4997 -90.7331 307° West 413 475 29,900 -540 Descending Minneapolis Center
10:28AM 44.5678 -90.8578 307° West 404 465 28,900 -1,020 Descending Minneapolis Center
10:29AM 44.6331 -90.9778 307° West 397 457 27,900 -1,080 Descending Minneapolis Center
10:30AM 44.7103 -91.1231 307° West 390 449 26,700 -1,140 Descending Minneapolis Center
10:32AM 44.7736 -91.2414 307° West 384 442 25,400 -1,620 Descending Minneapolis Center
10:33AM 44.8456 -91.3761 307° West 367 422 23,100 -2,160 Descending Minneapolis Center
10:34AM 44.9008 -91.4958 303° West 347 399 21,000 -1,920 Descending Minneapolis Center
10:35AM 44.9247 -91.6294 284° West 336 387 19,200 -1,680 Descending Minneapolis Center
10:36AM 44.9514 -91.7592 286° West 325 374 17,600 -1,680 Descending Minneapolis Center
10:37AM 44.9856 -91.8889 290° West 319 367 15,800 -1,680 Descending FAA TRACON SMA TRACON (SMA)
10:37AM 44.9914 -91.9264 282° West 319 367 15,300 -1,500 Descending FAA TRACON SMA TRACON (SMA)
10:37AM 44.9969 -91.9628 282° West 316 364 14,800 -1,680 Descending FAA TRACON SMA TRACON (SMA)
10:38AM 45.0053 -92.0089 284° West 315 362 14,200 -1,500 Descending FAA TRACON SMA TRACON (SMA)
10:38AM 45.0111 -92.0450 283° West 314 361 13,800 -1,380 Descending FAA TRACON SMA TRACON (SMA)
10:38AM 45.0175 -92.0817 284° West 312 359 13,300 -1,800 Descending FAA TRACON SMA TRACON (SMA)
10:39AM 45.0261 -92.1269 285° West 310 357 12,600 -1,680 Descending FAA TRACON SMA TRACON (SMA)
10:39AM 45.0328 -92.1628 285° West 309 356 12,200 -1,200 Descending FAA TRACON SMA TRACON (SMA)
10:39AM 45.0383 -92.1978 283° West 303 349 11,800 -1,380 Descending FAA TRACON SMA TRACON (SMA)
10:40AM 45.0458 -92.2406 284° West 297 342 11,300 -1,200 Descending FAA TRACON SMA TRACON (SMA)
10:40AM 45.0503 -92.2747 280° West 290 334 11,000 -600 Descending FAA TRACON SMA TRACON (SMA)
10:40AM 45.0497 -92.3100 269° West 289 333 10,900 -300 Descending FAA TRACON SMA TRACON (SMA)
10:41AM 45.0433 -92.3519 258° West 287 330 10,800 -900 Descending FAA TRACON SMA TRACON (SMA)
10:41AM 45.0389 -92.3839 259° West 273 314 10,300 -1,680 Descending FAA TRACON SMA TRACON (SMA)
10:41AM 45.0328 -92.4136 254° West 262 302 9,700 -1,980 Descending FAA TRACON SMA TRACON (SMA)
10:42AM 45.0194 -92.4486 242° Southwest 262 302 9,000 -1,920 Descending FAA TRACON SMA TRACON (SMA)
10:42AM 45.0064 -92.4747 235° Southwest 263 303 8,400 -1,800 Descending FAA TRACON SMA TRACON (SMA)
10:42AM 44.9950 -92.5006 238° Southwest 260 299 7,800 -2,040 Descending FAA TRACON SMA TRACON (SMA)
10:43AM 44.9797 -92.5319 235° Southwest 255 293 7,100 -1,260 Descending FAA TRACON SMA TRACON (SMA)
10:43AM 44.9672 -92.5575 235° Southwest 253 291 7,000 -300 Descending FAA TRACON SMA TRACON (SMA)
10:43AM 44.9542 -92.5822 233° Southwest 254 292 6,900 -180 Descending FAA TRACON SMA TRACON (SMA)
10:44AM 44.9389 -92.6133 235° Southwest 253 291 6,900  Level FAA TRACON SMA TRACON (SMA)
10:44AM 44.9272 -92.6378 236° Southwest 250 288 6,900  Level FAA TRACON SMA TRACON (SMA)
10:44AM 44.9144 -92.6619 233° Southwest 248 285 6,900  Level FAA TRACON SMA TRACON (SMA)
10:45AM 44.8992 -92.6925 235° Southwest 249 287 6,900  Level FAA TRACON SMA TRACON (SMA)
10:45AM 44.8869 -92.7178 236° Southwest 248 285 6,900  Level FAA TRACON SMA TRACON (SMA)
10:45AM 44.8742 -92.7425 234° Southwest 253 291 6,900 -480 Level FAA TRACON SMA TRACON (SMA)
10:46AM 44.8583 -92.7742 235° Southwest 256 295 6,600 -1,080 Descending FAA TRACON SMA TRACON (SMA)
10:46AM 44.8461 -92.7992 235° Southwest 253 291 6,200 -1,380 Descending FAA TRACON SMA TRACON (SMA)
10:46AM 44.8328 -92.8244 233° Southwest 257 296 5,700 -1,680 Descending FAA TRACON SMA TRACON (SMA)
10:47AM 44.8178 -92.8553 236° Southwest 253 291 5,100 -1,680 Descending FAA TRACON SMA TRACON (SMA)
10:47AM 44.8108 -92.8825 250° West 249 287 4,600 -1,200 Descending FAA TRACON SMA TRACON (SMA)
10:47AM 44.8089 -92.9103 264° West 236 272 4,300 -900 Descending FAA TRACON SMA TRACON (SMA)
10:48AM 44.8069 -92.9414 265° West 210 242 4,000 -780 Descending FAA TRACON SMA TRACON (SMA)
10:48AM 44.8050 -92.9636 263° West 192 221 3,800 -780 Descending FAA TRACON SMA TRACON (SMA)
10:48AM 44.8053 -92.9842 271° West 175 201 3,500 -900 Descending FAA TRACON SMA TRACON (SMA)
10:49AM 44.8083 -93.0072 281° West 157 181 3,200 -780 Descending FAA TRACON SMA TRACON (SMA)
10:49AM 44.8108 -93.0247 281° West 149 171 3,000 -660 Descending FAA TRACON SMA TRACON (SMA)